sensor_id;sensor_type;location;lat;lon;timestamp;P1;durP1;ratioP1;P2;durP2;ratioP2
49824;SDS011;35714;55.708;37.478;2022-11-11T00:01:28;37.00;;;18.50;;
49824;SDS011;35714;55.708;37.478;2022-11-11T00:04:13;33.30;;;19.25;;
49824;SDS011;35714;55.708;37.478;2022-11-11T00:06:57;32.97;;;18.55;;
49824;SDS011;35714;55.708;37.478;2022-11-11T00:09:41;35.60;;;18.98;;
49824;SDS011;35714;55.708;37.478;2022-11-11T00:12:25;33.95;;;17.67;;
49824;SDS011;35714;55.708;37.478;2022-11-11T00:15:10;36.08;;;17.60;;
49824;SDS011;35714;55.708;37.478;2022-11-11T00:17:54;32.97;;;19.15;;
49824;SDS011;35714;55.708;37.478;2022-11-11T00:20:57;40.67;;;18.42;;
49824;SDS011;35714;55.708;37.478;2022-11-11T00:24:00;29.90;;;16.60;;
49824;SDS011;35714;55.708;37.478;2022-11-11T00:27:04;35.25;;;17.45;;
49824;SDS011;35714;55.708;37.478;2022-11-11T00:29:48;34.08;;;18.50;;
49824;SDS011;35714;55.708;37.478;2022-11-11T00:32:33;28.95;;;16.75;;
49824;SDS011;35714;55.708;37.478;2022-11-11T00:35:17;27.90;;;16.35;;
49824;SDS011;35714;55.708;37.478;2022-11-11T00:38:20;29.90;;;16.27;;
49824;SDS011;35714;55.708;37.478;2022-11-11T00:41:23;26.55;;;15.32;;
49824;SDS011;35714;55.708;37.478;2022-11-11T00:44:09;32.80;;;16.85;;
49824;SDS011;35714;55.708;37.478;2022-11-11T00:46:54;29.30;;;15.93;;
49824;SDS011;35714;55.708;37.478;2022-11-11T00:49:57;30.20;;;16.48;;
49824;SDS011;35714;55.708;37.478;2022-11-11T00:53:03;27.60;;;14.43;;
49824;SDS011;35714;55.708;37.478;2022-11-11T00:55:51;32.35;;;17.23;;
49824;SDS011;35714;55.708;37.478;2022-11-11T00:58:35;30.83;;;16.02;;
49824;SDS011;35714;55.708;37.478;2022-11-11T01:01:19;30.10;;;16.23;;
49824;SDS011;35714;55.708;37.478;2022-11-11T01:04:03;26.75;;;15.75;;
49824;SDS011;35714;55.708;37.478;2022-11-11T01:06:49;30.40;;;15.68;;
49824;SDS011;35714;55.708;37.478;2022-11-11T01:09:33;30.85;;;15.57;;
49824;SDS011;35714;55.708;37.478;2022-11-11T01:12:17;28.42;;;16.02;;
49824;SDS011;35714;55.708;37.478;2022-11-11T01:15:01;32.10;;;16.67;;
49824;SDS011;35714;55.708;37.478;2022-11-11T01:17:46;27.85;;;14.15;;
49824;SDS011;35714;55.708;37.478;2022-11-11T01:20:30;25.17;;;13.85;;
49824;SDS011;35714;55.708;37.478;2022-11-11T01:23:14;26.45;;;14.93;;
49824;SDS011;35714;55.708;37.478;2022-11-11T01:26:05;23.83;;;14.52;;
49824;SDS011;35714;55.708;37.478;2022-11-11T01:28:53;24.30;;;14.07;;
49824;SDS011;35714;55.708;37.478;2022-11-11T01:31:39;24.55;;;14.07;;
49824;SDS011;35714;55.708;37.478;2022-11-11T01:34:23;23.17;;;13.60;;
49824;SDS011;35714;55.708;37.478;2022-11-11T01:37:07;23.35;;;12.75;;
49824;SDS011;35714;55.708;37.478;2022-11-11T01:39:51;21.60;;;12.52;;
49824;SDS011;35714;55.708;37.478;2022-11-11T01:45:58;19.27;;;10.75;;
49824;SDS011;35714;55.708;37.478;2022-11-11T01:48:45;24.08;;;13.07;;
49824;SDS011;35714;55.708;37.478;2022-11-11T01:54:55;19.63;;;11.73;;
49824;SDS011;35714;55.708;37.478;2022-11-11T01:57:48;22.38;;;12.02;;
49824;SDS011;35714;55.708;37.478;2022-11-11T02:00:37;20.50;;;10.05;;
49824;SDS011;35714;55.708;37.478;2022-11-11T02:03:21;21.70;;;10.95;;
49824;SDS011;35714;55.708;37.478;2022-11-11T02:06:08;21.35;;;10.70;;
49824;SDS011;35714;55.708;37.478;2022-11-11T02:08:53;18.57;;;10.20;;
49824;SDS011;35714;55.708;37.478;2022-11-11T02:11:39;19.67;;;10.02;;
49824;SDS011;35714;55.708;37.478;2022-11-11T02:14:44;16.17;;;9.80;;
49824;SDS011;35714;55.708;37.478;2022-11-11T02:17:32;14.20;;;8.75;;
49824;SDS011;35714;55.708;37.478;2022-11-11T02:20:18;21.30;;;10.68;;
49824;SDS011;35714;55.708;37.478;2022-11-11T02:23:15;15.70;;;9.75;;
49824;SDS011;35714;55.708;37.478;2022-11-11T02:26:05;18.80;;;8.48;;
49824;SDS011;35714;55.708;37.478;2022-11-11T02:28:52;17.48;;;9.18;;
49824;SDS011;35714;55.708;37.478;2022-11-11T02:31:38;14.30;;;7.97;;
49824;SDS011;35714;55.708;37.478;2022-11-11T02:34:29;14.73;;;7.75;;
49824;SDS011;35714;55.708;37.478;2022-11-11T02:37:18;18.67;;;8.27;;
49824;SDS011;35714;55.708;37.478;2022-11-11T02:40:06;15.35;;;8.93;;
49824;SDS011;35714;55.708;37.478;2022-11-11T02:42:52;14.48;;;8.00;;
49824;SDS011;35714;55.708;37.478;2022-11-11T02:45:36;14.00;;;8.40;;
49824;SDS011;35714;55.708;37.478;2022-11-11T02:48:20;16.50;;;7.97;;
49824;SDS011;35714;55.708;37.478;2022-11-11T02:51:05;11.75;;;6.95;;
49824;SDS011;35714;55.708;37.478;2022-11-11T02:53:51;13.65;;;7.80;;
49824;SDS011;35714;55.708;37.478;2022-11-11T02:56:41;12.55;;;7.07;;
49824;SDS011;35714;55.708;37.478;2022-11-11T02:59:44;12.90;;;7.88;;
49824;SDS011;35714;55.708;37.478;2022-11-11T03:02:31;12.32;;;6.70;;
49824;SDS011;35714;55.708;37.478;2022-11-11T03:05:15;12.52;;;7.70;;
49824;SDS011;35714;55.708;37.478;2022-11-11T03:08:00;13.20;;;6.88;;
49824;SDS011;35714;55.708;37.478;2022-11-11T03:10:44;13.73;;;7.60;;
49824;SDS011;35714;55.708;37.478;2022-11-11T03:13:28;12.77;;;7.35;;
49824;SDS011;35714;55.708;37.478;2022-11-11T03:16:12;10.40;;;6.28;;
49824;SDS011;35714;55.708;37.478;2022-11-11T03:19:17;11.00;;;6.50;;
49824;SDS011;35714;55.708;37.478;2022-11-11T03:22:03;13.93;;;7.70;;
49824;SDS011;35714;55.708;37.478;2022-11-11T03:24:47;10.27;;;6.63;;
49824;SDS011;35714;55.708;37.478;2022-11-11T03:27:50;11.32;;;5.95;;
49824;SDS011;35714;55.708;37.478;2022-11-11T03:30:35;11.18;;;6.13;;
49824;SDS011;35714;55.708;37.478;2022-11-11T03:33:21;10.82;;;6.00;;
49824;SDS011;35714;55.708;37.478;2022-11-11T03:36:05;10.65;;;6.68;;
49824;SDS011;35714;55.708;37.478;2022-11-11T03:38:49;10.80;;;6.40;;
49824;SDS011;35714;55.708;37.478;2022-11-11T03:41:33;9.93;;;5.68;;
49824;SDS011;35714;55.708;37.478;2022-11-11T03:44:18;10.75;;;5.85;;
49824;SDS011;35714;55.708;37.478;2022-11-11T03:47:02;9.40;;;5.20;;
49824;SDS011;35714;55.708;37.478;2022-11-11T03:49:46;9.35;;;5.20;;
49824;SDS011;35714;55.708;37.478;2022-11-11T03:52:30;9.18;;;6.03;;
49824;SDS011;35714;55.708;37.478;2022-11-11T03:55:15;9.35;;;5.45;;
49824;SDS011;35714;55.708;37.478;2022-11-11T03:57:59;10.05;;;6.15;;
49824;SDS011;35714;55.708;37.478;2022-11-11T04:00:43;11.07;;;5.90;;
49824;SDS011;35714;55.708;37.478;2022-11-11T04:03:27;9.02;;;5.63;;
49824;SDS011;35714;55.708;37.478;2022-11-11T04:06:30;10.02;;;5.80;;
49824;SDS011;35714;55.708;37.478;2022-11-11T04:09:51;10.80;;;6.20;;
49824;SDS011;35714;55.708;37.478;2022-11-11T04:12:55;10.93;;;5.60;;
49824;SDS011;35714;55.708;37.478;2022-11-11T04:15:59;9.25;;;5.45;;
49824;SDS011;35714;55.708;37.478;2022-11-11T04:18:50;9.63;;;5.85;;
49824;SDS011;35714;55.708;37.478;2022-11-11T04:21:53;9.75;;;5.85;;
49824;SDS011;35714;55.708;37.478;2022-11-11T04:24:37;10.50;;;6.63;;
49824;SDS011;35714;55.708;37.478;2022-11-11T04:27:40;13.15;;;6.10;;
49824;SDS011;35714;55.708;37.478;2022-11-11T04:30:25;10.00;;;5.45;;
49824;SDS011;35714;55.708;37.478;2022-11-11T04:33:09;8.77;;;4.93;;
49824;SDS011;35714;55.708;37.478;2022-11-11T04:35:53;11.57;;;6.05;;
49824;SDS011;35714;55.708;37.478;2022-11-11T04:38:37;11.70;;;6.00;;
49824;SDS011;35714;55.708;37.478;2022-11-11T04:41:41;10.88;;;5.97;;
49824;SDS011;35714;55.708;37.478;2022-11-11T04:44:25;11.60;;;5.45;;
49824;SDS011;35714;55.708;37.478;2022-11-11T04:47:31;8.70;;;5.40;;
49824;SDS011;35714;55.708;37.478;2022-11-11T04:50:16;15.02;;;8.30;;
49824;SDS011;35714;55.708;37.478;2022-11-11T04:53:00;9.73;;;5.15;;
49824;SDS011;35714;55.708;37.478;2022-11-11T04:55:46;7.97;;;5.30;;
49824;SDS011;35714;55.708;37.478;2022-11-11T04:58:49;9.38;;;5.40;;
49824;SDS011;35714;55.708;37.478;2022-11-11T05:01:53;8.23;;;4.25;;
49824;SDS011;35714;55.708;37.478;2022-11-11T05:04:56;8.18;;;4.45;;
49824;SDS011;35714;55.708;37.478;2022-11-11T05:07:41;7.25;;;3.55;;
49824;SDS011;35714;55.708;37.478;2022-11-11T05:10:44;8.38;;;4.63;;
49824;SDS011;35714;55.708;37.478;2022-11-11T05:13:28;8.45;;;4.97;;
49824;SDS011;35714;55.708;37.478;2022-11-11T05:16:32;9.38;;;5.63;;
49824;SDS011;35714;55.708;37.478;2022-11-11T05:19:40;9.65;;;5.10;;
49824;SDS011;35714;55.708;37.478;2022-11-11T05:22:44;11.25;;;5.35;;
49824;SDS011;35714;55.708;37.478;2022-11-11T05:25:28;9.30;;;5.65;;
49824;SDS011;35714;55.708;37.478;2022-11-11T05:28:14;8.70;;;5.05;;
49824;SDS011;35714;55.708;37.478;2022-11-11T05:30:58;11.88;;;5.45;;
49824;SDS011;35714;55.708;37.478;2022-11-11T05:33:42;6.85;;;3.85;;
49824;SDS011;35714;55.708;37.478;2022-11-11T05:36:26;7.40;;;4.50;;
49824;SDS011;35714;55.708;37.478;2022-11-11T05:39:11;8.27;;;4.60;;
49824;SDS011;35714;55.708;37.478;2022-11-11T05:41:55;7.63;;;4.45;;
49824;SDS011;35714;55.708;37.478;2022-11-11T05:44:39;7.60;;;4.15;;
49824;SDS011;35714;55.708;37.478;2022-11-11T05:47:23;6.78;;;3.55;;
49824;SDS011;35714;55.708;37.478;2022-11-11T05:50:08;7.90;;;4.35;;
49824;SDS011;35714;55.708;37.478;2022-11-11T05:52:52;11.82;;;4.40;;
49824;SDS011;35714;55.708;37.478;2022-11-11T05:55:36;7.43;;;3.75;;
49824;SDS011;35714;55.708;37.478;2022-11-11T05:58:20;6.80;;;4.07;;
49824;SDS011;35714;55.708;37.478;2022-11-11T06:01:05;6.80;;;3.65;;
49824;SDS011;35714;55.708;37.478;2022-11-11T06:03:49;9.93;;;5.13;;
49824;SDS011;35714;55.708;37.478;2022-11-11T06:06:33;9.10;;;4.72;;
49824;SDS011;35714;55.708;37.478;2022-11-11T06:09:18;7.47;;;4.20;;
49824;SDS011;35714;55.708;37.478;2022-11-11T06:12:02;8.68;;;4.80;;
49824;SDS011;35714;55.708;37.478;2022-11-11T06:14:46;8.98;;;4.57;;
49824;SDS011;35714;55.708;37.478;2022-11-11T06:17:32;8.18;;;5.00;;
49824;SDS011;35714;55.708;37.478;2022-11-11T06:23:02;8.07;;;3.97;;
49824;SDS011;35714;55.708;37.478;2022-11-11T06:28:52;8.60;;;5.47;;
49824;SDS011;35714;55.708;37.478;2022-11-11T06:31:37;11.05;;;6.05;;
49824;SDS011;35714;55.708;37.478;2022-11-11T06:34:21;10.73;;;7.50;;
49824;SDS011;35714;55.708;37.478;2022-11-11T06:37:06;10.40;;;5.68;;
49824;SDS011;35714;55.708;37.478;2022-11-11T06:39:50;12.23;;;5.55;;
49824;SDS011;35714;55.708;37.478;2022-11-11T06:42:37;11.75;;;6.70;;
49824;SDS011;35714;55.708;37.478;2022-11-11T06:45:22;9.52;;;4.82;;
49824;SDS011;35714;55.708;37.478;2022-11-11T06:48:10;6.32;;;3.65;;
49824;SDS011;35714;55.708;37.478;2022-11-11T06:50:59;7.30;;;4.53;;
49824;SDS011;35714;55.708;37.478;2022-11-11T06:53:45;7.63;;;4.30;;
49824;SDS011;35714;55.708;37.478;2022-11-11T06:56:30;8.27;;;5.10;;
49824;SDS011;35714;55.708;37.478;2022-11-11T06:59:14;8.82;;;4.95;;
49824;SDS011;35714;55.708;37.478;2022-11-11T07:01:58;7.60;;;4.57;;
49824;SDS011;35714;55.708;37.478;2022-11-11T07:04:42;8.05;;;5.05;;
49824;SDS011;35714;55.708;37.478;2022-11-11T07:07:29;8.75;;;4.72;;
49824;SDS011;35714;55.708;37.478;2022-11-11T07:10:13;9.48;;;4.70;;
49824;SDS011;35714;55.708;37.478;2022-11-11T07:12:58;7.30;;;4.55;;
49824;SDS011;35714;55.708;37.478;2022-11-11T07:15:42;8.23;;;5.10;;
49824;SDS011;35714;55.708;37.478;2022-11-11T07:18:27;9.40;;;4.35;;
49824;SDS011;35714;55.708;37.478;2022-11-11T07:21:11;9.18;;;5.75;;
49824;SDS011;35714;55.708;37.478;2022-11-11T07:23:55;13.38;;;6.15;;
49824;SDS011;35714;55.708;37.478;2022-11-11T07:26:40;9.98;;;5.68;;
49824;SDS011;35714;55.708;37.478;2022-11-11T07:29:24;9.15;;;5.30;;
49824;SDS011;35714;55.708;37.478;2022-11-11T07:32:09;13.70;;;5.72;;
49824;SDS011;35714;55.708;37.478;2022-11-11T07:34:53;9.80;;;4.78;;
49824;SDS011;35714;55.708;37.478;2022-11-11T07:37:37;10.30;;;5.82;;
49824;SDS011;35714;55.708;37.478;2022-11-11T07:40:21;8.50;;;5.75;;
49824;SDS011;35714;55.708;37.478;2022-11-11T07:43:05;10.90;;;5.90;;
49824;SDS011;35714;55.708;37.478;2022-11-11T07:45:50;9.00;;;4.75;;
49824;SDS011;35714;55.708;37.478;2022-11-11T07:48:34;11.93;;;5.63;;
49824;SDS011;35714;55.708;37.478;2022-11-11T07:51:19;14.20;;;7.68;;
49824;SDS011;35714;55.708;37.478;2022-11-11T07:54:03;12.10;;;7.07;;
49824;SDS011;35714;55.708;37.478;2022-11-11T07:56:47;12.18;;;6.80;;
49824;SDS011;35714;55.708;37.478;2022-11-11T07:59:32;11.90;;;6.90;;
49824;SDS011;35714;55.708;37.478;2022-11-11T08:02:16;10.40;;;6.57;;
49824;SDS011;35714;55.708;37.478;2022-11-11T08:05:00;12.75;;;6.88;;
49824;SDS011;35714;55.708;37.478;2022-11-11T08:07:45;13.25;;;8.45;;
49824;SDS011;35714;55.708;37.478;2022-11-11T08:10:29;12.80;;;7.95;;
49824;SDS011;35714;55.708;37.478;2022-11-11T08:13:14;13.65;;;8.35;;
49824;SDS011;35714;55.708;37.478;2022-11-11T08:16:17;14.77;;;8.93;;
49824;SDS011;35714;55.708;37.478;2022-11-11T08:19:01;13.75;;;8.80;;
49824;SDS011;35714;55.708;37.478;2022-11-11T08:21:45;15.43;;;9.55;;
49824;SDS011;35714;55.708;37.478;2022-11-11T08:24:30;12.75;;;7.57;;
49824;SDS011;35714;55.708;37.478;2022-11-11T08:27:14;13.20;;;7.95;;
49824;SDS011;35714;55.708;37.478;2022-11-11T08:29:58;15.15;;;9.27;;
49824;SDS011;35714;55.708;37.478;2022-11-11T08:32:42;15.23;;;9.88;;
49824;SDS011;35714;55.708;37.478;2022-11-11T08:35:27;14.05;;;10.65;;
49824;SDS011;35714;55.708;37.478;2022-11-11T08:38:13;8.98;;;4.82;;
49824;SDS011;35714;55.708;37.478;2022-11-11T08:41:01;11.50;;;7.03;;
49824;SDS011;35714;55.708;37.478;2022-11-11T08:43:49;9.57;;;5.55;;
49824;SDS011;35714;55.708;37.478;2022-11-11T08:46:34;11.48;;;6.13;;
49824;SDS011;35714;55.708;37.478;2022-11-11T08:49:18;8.40;;;4.80;;
49824;SDS011;35714;55.708;37.478;2022-11-11T08:52:03;8.88;;;5.30;;
49824;SDS011;35714;55.708;37.478;2022-11-11T08:54:47;9.18;;;4.85;;
49824;SDS011;35714;55.708;37.478;2022-11-11T08:57:31;11.60;;;5.50;;
49824;SDS011;35714;55.708;37.478;2022-11-11T09:00:17;10.00;;;5.03;;
49824;SDS011;35714;55.708;37.478;2022-11-11T09:03:05;10.25;;;5.95;;
49824;SDS011;35714;55.708;37.478;2022-11-11T09:05:52;12.07;;;5.40;;
49824;SDS011;35714;55.708;37.478;2022-11-11T09:08:36;8.10;;;5.13;;
49824;SDS011;35714;55.708;37.478;2022-11-11T09:11:21;10.75;;;5.55;;
49824;SDS011;35714;55.708;37.478;2022-11-11T09:14:05;9.60;;;4.68;;
49824;SDS011;35714;55.708;37.478;2022-11-11T09:16:50;9.60;;;4.38;;
49824;SDS011;35714;55.708;37.478;2022-11-11T09:19:34;9.35;;;4.85;;
49824;SDS011;35714;55.708;37.478;2022-11-11T09:22:18;10.02;;;5.32;;
49824;SDS011;35714;55.708;37.478;2022-11-11T09:25:02;8.50;;;5.15;;
49824;SDS011;35714;55.708;37.478;2022-11-11T09:27:53;9.18;;;5.15;;
49824;SDS011;35714;55.708;37.478;2022-11-11T09:30:39;8.27;;;5.18;;
49824;SDS011;35714;55.708;37.478;2022-11-11T09:33:23;9.32;;;5.00;;
49824;SDS011;35714;55.708;37.478;2022-11-11T09:36:07;10.18;;;5.05;;
49824;SDS011;35714;55.708;37.478;2022-11-11T09:38:51;9.88;;;5.05;;
49824;SDS011;35714;55.708;37.478;2022-11-11T09:41:43;7.47;;;4.85;;
49824;SDS011;35714;55.708;37.478;2022-11-11T09:50:41;9.80;;;5.80;;
49824;SDS011;35714;55.708;37.478;2022-11-11T09:53:38;9.10;;;4.78;;
49824;SDS011;35714;55.708;37.478;2022-11-11T09:56:27;8.82;;;4.95;;
49824;SDS011;35714;55.708;37.478;2022-11-11T09:59:20;10.80;;;8.00;;
49824;SDS011;35714;55.708;37.478;2022-11-11T10:05:06;13.77;;;10.48;;
49824;SDS011;35714;55.708;37.478;2022-11-11T10:07:57;10.13;;;6.97;;
49824;SDS011;35714;55.708;37.478;2022-11-11T10:10:48;10.82;;;6.80;;
49824;SDS011;35714;55.708;37.478;2022-11-11T10:13:35;10.63;;;7.00;;
49824;SDS011;35714;55.708;37.478;2022-11-11T10:16:43;7.63;;;4.38;;
49824;SDS011;35714;55.708;37.478;2022-11-11T10:19:31;7.47;;;4.22;;
49824;SDS011;35714;55.708;37.478;2022-11-11T10:22:21;7.78;;;4.28;;
49824;SDS011;35714;55.708;37.478;2022-11-11T10:28:03;12.10;;;7.50;;
49824;SDS011;35714;55.708;37.478;2022-11-11T10:30:48;11.18;;;5.90;;
49824;SDS011;35714;55.708;37.478;2022-11-11T10:33:40;9.50;;;5.68;;
49824;SDS011;35714;55.708;37.478;2022-11-11T10:36:32;8.38;;;5.22;;
49824;SDS011;35714;55.708;37.478;2022-11-11T10:42:42;7.60;;;4.15;;
49824;SDS011;35714;55.708;37.478;2022-11-11T10:51:46;10.02;;;4.57;;
49824;SDS011;35714;55.708;37.478;2022-11-11T10:54:40;10.35;;;5.03;;
49824;SDS011;35714;55.708;37.478;2022-11-11T10:57:43;9.63;;;4.95;;
49824;SDS011;35714;55.708;37.478;2022-11-11T11:00:31;9.65;;;4.15;;
49824;SDS011;35714;55.708;37.478;2022-11-11T11:03:21;7.78;;;3.92;;
49824;SDS011;35714;55.708;37.478;2022-11-11T11:06:13;7.85;;;4.80;;
49824;SDS011;35714;55.708;37.478;2022-11-11T11:12:04;8.52;;;4.70;;
49824;SDS011;35714;55.708;37.478;2022-11-11T11:14:54;8.77;;;4.53;;
49824;SDS011;35714;55.708;37.478;2022-11-11T11:18:30;8.45;;;4.65;;
49824;SDS011;35714;55.708;37.478;2022-11-11T11:20:57;8.20;;;4.68;;
49824;SDS011;35714;55.708;37.478;2022-11-11T11:23:45;6.82;;;3.75;;
49824;SDS011;35714;55.708;37.478;2022-11-11T11:26:45;7.57;;;4.00;;
49824;SDS011;35714;55.708;37.478;2022-11-11T11:32:19;7.65;;;4.10;;
49824;SDS011;35714;55.708;37.478;2022-11-11T11:35:13;8.23;;;5.28;;
49824;SDS011;35714;55.708;37.478;2022-11-11T11:38:38;6.35;;;3.92;;
49824;SDS011;35714;55.708;37.478;2022-11-11T11:41:37;9.60;;;4.57;;
49824;SDS011;35714;55.708;37.478;2022-11-11T11:44:24;8.10;;;4.35;;
49824;SDS011;35714;55.708;37.478;2022-11-11T11:56:51;9.23;;;6.00;;
49824;SDS011;35714;55.708;37.478;2022-11-11T12:00:39;11.40;;;8.23;;
49824;SDS011;35714;55.708;37.478;2022-11-11T12:03:07;13.98;;;9.25;;
49824;SDS011;35714;55.708;37.478;2022-11-11T12:06:02;12.60;;;8.48;;
49824;SDS011;35714;55.708;37.478;2022-11-11T12:18:30;10.95;;;7.05;;
49824;SDS011;35714;55.708;37.478;2022-11-11T12:21:25;10.68;;;7.00;;
49824;SDS011;35714;55.708;37.478;2022-11-11T12:31:04;7.97;;;5.13;;
49824;SDS011;35714;55.708;37.478;2022-11-11T12:37:04;7.95;;;4.65;;
49824;SDS011;35714;55.708;37.478;2022-11-11T12:40:23;7.40;;;3.90;;
49824;SDS011;35714;55.708;37.478;2022-11-11T12:43:29;10.68;;;6.13;;
49824;SDS011;35714;55.708;37.478;2022-11-11T13:11:44;9.75;;;7.18;;
49824;SDS011;35714;55.708;37.478;2022-11-11T13:17:35;10.20;;;6.53;;
49824;SDS011;35714;55.708;37.478;2022-11-11T13:23:22;10.02;;;5.65;;
49824;SDS011;35714;55.708;37.478;2022-11-11T13:26:12;13.70;;;5.53;;
49824;SDS011;35714;55.708;37.478;2022-11-11T13:36:01;11.27;;;6.55;;
49824;SDS011;35714;55.708;37.478;2022-11-11T13:38:50;10.43;;;5.88;;
49824;SDS011;35714;55.708;37.478;2022-11-11T13:41:39;8.57;;;6.00;;
49824;SDS011;35714;55.708;37.478;2022-11-11T13:44:33;6.38;;;3.63;;
49824;SDS011;35714;55.708;37.478;2022-11-11T13:47:33;8.25;;;5.13;;
49824;SDS011;35714;55.708;37.478;2022-11-11T13:50:36;6.10;;;3.45;;
49824;SDS011;35714;55.708;37.478;2022-11-11T13:53:32;5.57;;;3.53;;
49824;SDS011;35714;55.708;37.478;2022-11-11T13:56:24;6.47;;;4.05;;
49824;SDS011;35714;55.708;37.478;2022-11-11T13:59:24;7.88;;;4.55;;
49824;SDS011;35714;55.708;37.478;2022-11-11T14:07:47;10.32;;;4.65;;
49824;SDS011;35714;55.708;37.478;2022-11-11T14:16:08;6.50;;;3.85;;
49824;SDS011;35714;55.708;37.478;2022-11-11T14:18:54;6.72;;;4.03;;
49824;SDS011;35714;55.708;37.478;2022-11-11T14:21:41;7.20;;;3.35;;
49824;SDS011;35714;55.708;37.478;2022-11-11T14:27:29;5.75;;;3.35;;
49824;SDS011;35714;55.708;37.478;2022-11-11T14:30:29;6.68;;;3.58;;
49824;SDS011;35714;55.708;37.478;2022-11-11T14:39:35;6.68;;;2.60;;
49824;SDS011;35714;55.708;37.478;2022-11-11T14:54:50;5.80;;;2.83;;
49824;SDS011;35714;55.708;37.478;2022-11-11T15:00:32;7.70;;;2.53;;
49824;SDS011;35714;55.708;37.478;2022-11-11T15:06:41;7.00;;;2.38;;
49824;SDS011;35714;55.708;37.478;2022-11-11T15:15:59;5.07;;;2.28;;
49824;SDS011;35714;55.708;37.478;2022-11-11T15:19:03;7.00;;;2.45;;
49824;SDS011;35714;55.708;37.478;2022-11-11T15:35:24;9.25;;;3.45;;
49824;SDS011;35714;55.708;37.478;2022-11-11T15:41:10;5.50;;;2.55;;
49824;SDS011;35714;55.708;37.478;2022-11-11T15:44:17;5.88;;;2.53;;
49824;SDS011;35714;55.708;37.478;2022-11-11T15:47:02;6.00;;;2.90;;
49824;SDS011;35714;55.708;37.478;2022-11-11T15:49:47;6.53;;;3.28;;
49824;SDS011;35714;55.708;37.478;2022-11-11T15:52:33;4.72;;;2.50;;
49824;SDS011;35714;55.708;37.478;2022-11-11T15:55:22;4.80;;;2.22;;
49824;SDS011;35714;55.708;37.478;2022-11-11T16:00:58;6.05;;;2.47;;
49824;SDS011;35714;55.708;37.478;2022-11-11T16:03:47;4.80;;;2.42;;
49824;SDS011;35714;55.708;37.478;2022-11-11T16:06:31;6.00;;;2.03;;
49824;SDS011;35714;55.708;37.478;2022-11-11T16:09:23;5.75;;;2.10;;
49824;SDS011;35714;55.708;37.478;2022-11-11T16:12:15;5.93;;;2.35;;
49824;SDS011;35714;55.708;37.478;2022-11-11T16:15:04;5.80;;;2.10;;
49824;SDS011;35714;55.708;37.478;2022-11-11T16:17:56;4.78;;;2.15;;
49824;SDS011;35714;55.708;37.478;2022-11-11T16:20:51;4.72;;;1.95;;
49824;SDS011;35714;55.708;37.478;2022-11-11T16:23:48;5.57;;;1.98;;
49824;SDS011;35714;55.708;37.478;2022-11-11T16:26:34;5.30;;;2.33;;
49824;SDS011;35714;55.708;37.478;2022-11-11T16:29:19;4.95;;;2.05;;
49824;SDS011;35714;55.708;37.478;2022-11-11T16:35:22;5.97;;;2.03;;
49824;SDS011;35714;55.708;37.478;2022-11-11T16:38:31;6.07;;;2.38;;
49824;SDS011;35714;55.708;37.478;2022-11-11T16:41:22;6.93;;;2.10;;
49824;SDS011;35714;55.708;37.478;2022-11-11T16:47:46;6.95;;;2.08;;
49824;SDS011;35714;55.708;37.478;2022-11-11T16:50:31;3.20;;;1.50;;
49824;SDS011;35714;55.708;37.478;2022-11-11T16:53:26;5.57;;;1.80;;
49824;SDS011;35714;55.708;37.478;2022-11-11T16:56:23;3.78;;;1.83;;
49824;SDS011;35714;55.708;37.478;2022-11-11T16:59:12;5.75;;;2.13;;
49824;SDS011;35714;55.708;37.478;2022-11-11T17:02:03;7.40;;;2.75;;
49824;SDS011;35714;55.708;37.478;2022-11-11T17:04:58;6.80;;;2.42;;
49824;SDS011;35714;55.708;37.478;2022-11-11T17:07:42;5.40;;;2.78;;
49824;SDS011;35714;55.708;37.478;2022-11-11T17:10:26;6.63;;;3.10;;
49824;SDS011;35714;55.708;37.478;2022-11-11T17:13:12;5.32;;;2.28;;
49824;SDS011;35714;55.708;37.478;2022-11-11T17:15:57;7.97;;;3.05;;
49824;SDS011;35714;55.708;37.478;2022-11-11T17:18:47;6.25;;;3.20;;
49824;SDS011;35714;55.708;37.478;2022-11-11T17:21:32;5.50;;;3.00;;
49824;SDS011;35714;55.708;37.478;2022-11-11T17:24:16;5.63;;;2.65;;
49824;SDS011;35714;55.708;37.478;2022-11-11T17:27:00;5.85;;;3.03;;
49824;SDS011;35714;55.708;37.478;2022-11-11T17:29:45;5.45;;;2.78;;
49824;SDS011;35714;55.708;37.478;2022-11-11T17:32:31;7.00;;;3.00;;
49824;SDS011;35714;55.708;37.478;2022-11-11T17:35:15;7.70;;;3.08;;
49824;SDS011;35714;55.708;37.478;2022-11-11T17:38:00;6.75;;;3.35;;
49824;SDS011;35714;55.708;37.478;2022-11-11T17:40:45;6.22;;;3.13;;
49824;SDS011;35714;55.708;37.478;2022-11-11T17:43:30;6.65;;;3.03;;
49824;SDS011;35714;55.708;37.478;2022-11-11T17:46:15;5.53;;;2.70;;
49824;SDS011;35714;55.708;37.478;2022-11-11T17:48:59;5.97;;;3.33;;
49824;SDS011;35714;55.708;37.478;2022-11-11T17:51:44;6.80;;;3.25;;
49824;SDS011;35714;55.708;37.478;2022-11-11T17:54:28;7.05;;;3.45;;
49824;SDS011;35714;55.708;37.478;2022-11-11T17:57:13;7.10;;;3.60;;
49824;SDS011;35714;55.708;37.478;2022-11-11T17:59:57;8.38;;;3.20;;
49824;SDS011;35714;55.708;37.478;2022-11-11T18:02:41;7.03;;;3.80;;
49824;SDS011;35714;55.708;37.478;2022-11-11T18:05:25;5.75;;;3.47;;
49824;SDS011;35714;55.708;37.478;2022-11-11T18:08:10;5.82;;;3.17;;
49824;SDS011;35714;55.708;37.478;2022-11-11T18:11:04;9.35;;;3.97;;
49824;SDS011;35714;55.708;37.478;2022-11-11T18:13:51;7.30;;;3.95;;
49824;SDS011;35714;55.708;37.478;2022-11-11T18:16:35;7.93;;;4.40;;
49824;SDS011;35714;55.708;37.478;2022-11-11T18:19:19;7.18;;;3.47;;
49824;SDS011;35714;55.708;37.478;2022-11-11T18:22:04;8.57;;;3.63;;
49824;SDS011;35714;55.708;37.478;2022-11-11T18:24:48;7.47;;;3.42;;
49824;SDS011;35714;55.708;37.478;2022-11-11T18:27:32;8.15;;;3.40;;
49824;SDS011;35714;55.708;37.478;2022-11-11T18:30:17;8.07;;;4.32;;
49824;SDS011;35714;55.708;37.478;2022-11-11T18:33:01;6.80;;;3.33;;
49824;SDS011;35714;55.708;37.478;2022-11-11T18:35:45;8.63;;;3.80;;
49824;SDS011;35714;55.708;37.478;2022-11-11T18:38:30;9.60;;;3.78;;
49824;SDS011;35714;55.708;37.478;2022-11-11T18:41:15;6.68;;;3.42;;
49824;SDS011;35714;55.708;37.478;2022-11-11T18:44:01;8.60;;;3.90;;
49824;SDS011;35714;55.708;37.478;2022-11-11T18:46:46;6.88;;;3.78;;
49824;SDS011;35714;55.708;37.478;2022-11-11T18:49:30;7.18;;;3.95;;
49824;SDS011;35714;55.708;37.478;2022-11-11T18:52:15;8.32;;;3.80;;
49824;SDS011;35714;55.708;37.478;2022-11-11T18:54:59;9.32;;;3.58;;
49824;SDS011;35714;55.708;37.478;2022-11-11T18:57:43;9.90;;;4.18;;
49824;SDS011;35714;55.708;37.478;2022-11-11T19:00:28;6.35;;;3.30;;
49824;SDS011;35714;55.708;37.478;2022-11-11T19:03:12;9.23;;;4.15;;
49824;SDS011;35714;55.708;37.478;2022-11-11T19:06:00;7.40;;;3.83;;
49824;SDS011;35714;55.708;37.478;2022-11-11T19:08:53;9.07;;;4.07;;
49824;SDS011;35714;55.708;37.478;2022-11-11T19:11:43;8.93;;;3.65;;
49824;SDS011;35714;55.708;37.478;2022-11-11T19:14:29;6.65;;;3.70;;
49824;SDS011;35714;55.708;37.478;2022-11-11T19:17:13;7.00;;;3.72;;
49824;SDS011;35714;55.708;37.478;2022-11-11T19:19:58;5.05;;;2.80;;
49824;SDS011;35714;55.708;37.478;2022-11-11T19:22:42;8.02;;;3.80;;
49824;SDS011;35714;55.708;37.478;2022-11-11T19:25:26;6.13;;;3.28;;
49824;SDS011;35714;55.708;37.478;2022-11-11T19:28:10;7.53;;;3.53;;
49824;SDS011;35714;55.708;37.478;2022-11-11T19:30:59;6.95;;;2.95;;
49824;SDS011;35714;55.708;37.478;2022-11-11T19:33:48;7.40;;;3.70;;